sensor_id;sensor_type;location;lat;lon;timestamp;temperature;humidity
27306;DHT22;14792;50.886;6.468;2023-05-23T00:02:46;14.90;99.90
27306;DHT22;14792;50.886;6.468;2023-05-23T00:05:48;14.90;99.90
27306;DHT22;14792;50.886;6.468;2023-05-23T00:08:49;14.90;99.90
27306;DHT22;14792;50.886;6.468;2023-05-23T00:11:51;14.90;99.90
27306;DHT22;14792;50.886;6.468;2023-05-23T00:14:52;14.90;99.90
27306;DHT22;14792;50.886;6.468;2023-05-23T00:17:54;14.90;99.90
27306;DHT22;14792;50.886;6.468;2023-05-23T00:20:56;14.90;99.90
27306;DHT22;14792;50.886;6.468;2023-05-23T00:23:57;14.80;99.90
27306;DHT22;14792;50.886;6.468;2023-05-23T00:26:59;14.70;99.90
27306;DHT22;14792;50.886;6.468;2023-05-23T00:30:02;14.70;99.90
27306;DHT22;14792;50.886;6.468;2023-05-23T00:33:04;14.70;99.90
27306;DHT22;14792;50.886;6.468;2023-05-23T00:36:06;14.60;99.90
27306;DHT22;14792;50.886;6.468;2023-05-23T00:39:07;14.60;99.90
27306;DHT22;14792;50.886;6.468;2023-05-23T00:42:09;14.50;99.90
27306;DHT22;14792;50.886;6.468;2023-05-23T00:45:10;14.40;99.90
27306;DHT22;14792;50.886;6.468;2023-05-23T00:48:15;14.40;99.90
27306;DHT22;14792;50.886;6.468;2023-05-23T00:51:16;14.30;99.90
27306;DHT22;14792;50.886;6.468;2023-05-23T00:54:28;14.40;99.90
27306;DHT22;14792;50.886;6.468;2023-05-23T00:57:20;14.30;99.90
27306;DHT22;14792;50.886;6.468;2023-05-23T01:00:25;14.30;99.90
27306;DHT22;14792;50.886;6.468;2023-05-23T01:03:26;14.30;99.90
27306;DHT22;14792;50.886;6.468;2023-05-23T01:06:28;14.30;99.90
27306;DHT22;14792;50.886;6.468;2023-05-23T01:09:30;14.30;99.90
27306;DHT22;14792;50.886;6.468;2023-05-23T01:15:41;14.30;99.90
27306;DHT22;14792;50.886;6.468;2023-05-23T01:19:38;14.40;99.90
27306;DHT22;14792;50.886;6.468;2023-05-23T01:21:57;14.40;99.90
27306;DHT22;14792;50.886;6.468;2023-05-23T01:25:17;14.40;99.90
27306;DHT22;14792;50.886;6.468;2023-05-23T01:28:14;14.40;99.90
27306;DHT22;14792;50.886;6.468;2023-05-23T01:31:13;14.40;99.90
27306;DHT22;14792;50.886;6.468;2023-05-23T01:34:15;14.40;99.90
27306;DHT22;14792;50.886;6.468;2023-05-23T01:37:17;14.50;99.90
27306;DHT22;14792;50.886;6.468;2023-05-23T01:40:18;14.60;99.90
27306;DHT22;14792;50.886;6.468;2023-05-23T01:43:21;14.60;99.90
27306;DHT22;14792;50.886;6.468;2023-05-23T01:46:22;14.60;99.90
27306;DHT22;14792;50.886;6.468;2023-05-23T01:49:23;14.60;99.90
27306;DHT22;14792;50.886;6.468;2023-05-23T01:52:25;14.70;99.90
27306;DHT22;14792;50.886;6.468;2023-05-23T01:55:26;14.70;99.90
27306;DHT22;14792;50.886;6.468;2023-05-23T01:58:28;14.70;99.90
27306;DHT22;14792;50.886;6.468;2023-05-23T02:01:30;14.60;99.90
27306;DHT22;14792;50.886;6.468;2023-05-23T02:04:31;14.60;99.90
27306;DHT22;14792;50.886;6.468;2023-05-23T02:07:33;14.60;99.90
27306;DHT22;14792;50.886;6.468;2023-05-23T02:10:34;14.70;99.90
27306;DHT22;14792;50.886;6.468;2023-05-23T02:13:36;14.70;99.90
27306;DHT22;14792;50.886;6.468;2023-05-23T02:16:37;14.70;99.90
27306;DHT22;14792;50.886;6.468;2023-05-23T02:19:39;14.70;99.90
27306;DHT22;14792;50.886;6.468;2023-05-23T02:22:41;14.70;99.90
27306;DHT22;14792;50.886;6.468;2023-05-23T02:25:42;14.70;99.90
27306;DHT22;14792;50.886;6.468;2023-05-23T02:28:44;14.70;99.90
27306;DHT22;14792;50.886;6.468;2023-05-23T02:31:46;14.60;99.90
27306;DHT22;14792;50.886;6.468;2023-05-23T02:34:47;14.60;99.90
27306;DHT22;14792;50.886;6.468;2023-05-23T02:37:49;14.60;99.90
27306;DHT22;14792;50.886;6.468;2023-05-23T02:40:50;14.60;99.90
27306;DHT22;14792;50.886;6.468;2023-05-23T02:43:52;14.60;99.90
27306;DHT22;14792;50.886;6.468;2023-05-23T02:46:54;14.60;99.90
27306;DHT22;14792;50.886;6.468;2023-05-23T02:49:55;14.60;99.90
27306;DHT22;14792;50.886;6.468;2023-05-23T02:52:57;14.50;99.90
27306;DHT22;14792;50.886;6.468;2023-05-23T02:55:58;14.50;99.90
27306;DHT22;14792;50.886;6.468;2023-05-23T02:59:00;14.50;99.90
27306;DHT22;14792;50.886;6.468;2023-05-23T03:02:02;14.60;99.90
27306;DHT22;14792;50.886;6.468;2023-05-23T03:05:03;14.60;99.90
27306;DHT22;14792;50.886;6.468;2023-05-23T03:08:05;14.60;99.90
27306;DHT22;14792;50.886;6.468;2023-05-23T03:11:06;14.50;99.90
27306;DHT22;14792;50.886;6.468;2023-05-23T03:14:08;14.50;99.90
27306;DHT22;14792;50.886;6.468;2023-05-23T03:17:11;14.50;99.90
27306;DHT22;14792;50.886;6.468;2023-05-23T03:20:11;14.50;99.90
27306;DHT22;14792;50.886;6.468;2023-05-23T03:23:13;14.50;99.90
27306;DHT22;14792;50.886;6.468;2023-05-23T03:26:15;14.40;99.90
27306;DHT22;14792;50.886;6.468;2023-05-23T03:29:16;14.40;99.90
27306;DHT22;14792;50.886;6.468;2023-05-23T03:32:18;14.40;99.90
27306;DHT22;14792;50.886;6.468;2023-05-23T03:35:23;14.30;99.90
27306;DHT22;14792;50.886;6.468;2023-05-23T03:38:24;14.30;99.90
27306;DHT22;14792;50.886;6.468;2023-05-23T03:41:26;14.30;99.90
27306;DHT22;14792;50.886;6.468;2023-05-23T03:44:28;14.30;99.90
27306;DHT22;14792;50.886;6.468;2023-05-23T03:47:29;14.30;99.90
27306;DHT22;14792;50.886;6.468;2023-05-23T03:50:31;14.20;99.90
27306;DHT22;14792;50.886;6.468;2023-05-23T03:53:32;14.20;99.90
27306;DHT22;14792;50.886;6.468;2023-05-23T03:56:34;14.20;99.90
27306;DHT22;14792;50.886;6.468;2023-05-23T03:59:36;14.20;99.90
27306;DHT22;14792;50.886;6.468;2023-05-23T04:02:37;14.10;99.90
27306;DHT22;14792;50.886;6.468;2023-05-23T04:05:42;14.10;99.90
27306;DHT22;14792;50.886;6.468;2023-05-23T04:08:43;14.10;99.90
27306;DHT22;14792;50.886;6.468;2023-05-23T04:11:45;14.10;99.90
27306;DHT22;14792;50.886;6.468;2023-05-23T04:14:51;14.00;99.90
27306;DHT22;14792;50.886;6.468;2023-05-23T04:17:52;14.00;99.90
27306;DHT22;14792;50.886;6.468;2023-05-23T04:20:54;14.00;99.90
27306;DHT22;14792;50.886;6.468;2023-05-23T04:23:55;14.10;99.90
27306;DHT22;14792;50.886;6.468;2023-05-23T04:26:57;14.00;99.90
27306;DHT22;14792;50.886;6.468;2023-05-23T04:29:59;14.00;99.90
27306;DHT22;14792;50.886;6.468;2023-05-23T04:33:01;14.00;99.90
27306;DHT22;14792;50.886;6.468;2023-05-23T04:36:03;14.10;99.90
27306;DHT22;14792;50.886;6.468;2023-05-23T04:39:04;14.10;99.90
27306;DHT22;14792;50.886;6.468;2023-05-23T04:42:06;14.10;99.90
27306;DHT22;14792;50.886;6.468;2023-05-23T04:45:08;14.10;99.90
27306;DHT22;14792;50.886;6.468;2023-05-23T04:48:09;14.10;99.90
27306;DHT22;14792;50.886;6.468;2023-05-23T04:51:11;14.10;99.90
27306;DHT22;14792;50.886;6.468;2023-05-23T04:54:13;14.10;99.90
27306;DHT22;14792;50.886;6.468;2023-05-23T04:57:14;14.10;99.90
27306;DHT22;14792;50.886;6.468;2023-05-23T05:00:16;14.20;99.90
27306;DHT22;14792;50.886;6.468;2023-05-23T05:03:18;14.20;99.90
27306;DHT22;14792;50.886;6.468;2023-05-23T05:06:19;14.20;99.90
27306;DHT22;14792;50.886;6.468;2023-05-23T05:09:21;14.20;99.90
27306;DHT22;14792;50.886;6.468;2023-05-23T05:12:23;14.20;99.90
27306;DHT22;14792;50.886;6.468;2023-05-23T05:15:24;14.30;99.90
27306;DHT22;14792;50.886;6.468;2023-05-23T05:18:26;14.20;99.90
27306;DHT22;14792;50.886;6.468;2023-05-23T05:21:28;14.20;99.90
27306;DHT22;14792;50.886;6.468;2023-05-23T05:24:31;14.20;99.90
27306;DHT22;14792;50.886;6.468;2023-05-23T05:27:33;14.20;99.90
27306;DHT22;14792;50.886;6.468;2023-05-23T05:30:35;14.20;99.90
27306;DHT22;14792;50.886;6.468;2023-05-23T05:33:36;14.20;99.90
27306;DHT22;14792;50.886;6.468;2023-05-23T05:36:38;14.30;99.90
27306;DHT22;14792;50.886;6.468;2023-05-23T05:39:42;14.30;99.90
27306;DHT22;14792;50.886;6.468;2023-05-23T05:42:43;14.10;99.90
27306;DHT22;14792;50.886;6.468;2023-05-23T05:45:45;14.10;99.90
27306;DHT22;14792;50.886;6.468;2023-05-23T05:48:46;14.20;99.90
27306;DHT22;14792;50.886;6.468;2023-05-23T05:51:48;14.20;99.90
27306;DHT22;14792;50.886;6.468;2023-05-23T05:54:50;14.20;99.90
27306;DHT22;14792;50.886;6.468;2023-05-23T05:57:52;14.20;99.90
27306;DHT22;14792;50.886;6.468;2023-05-23T06:00:53;14.20;99.90
27306;DHT22;14792;50.886;6.468;2023-05-23T06:03:55;14.20;99.90
27306;DHT22;14792;50.886;6.468;2023-05-23T06:06:58;14.30;99.90
27306;DHT22;14792;50.886;6.468;2023-05-23T06:09:59;14.20;99.90
27306;DHT22;14792;50.886;6.468;2023-05-23T06:13:02;14.20;99.90
27306;DHT22;14792;50.886;6.468;2023-05-23T06:16:04;14.20;99.90
27306;DHT22;14792;50.886;6.468;2023-05-23T06:19:06;14.20;99.90
27306;DHT22;14792;50.886;6.468;2023-05-23T06:22:08;14.20;99.90
27306;DHT22;14792;50.886;6.468;2023-05-23T06:25:10;14.30;99.90
27306;DHT22;14792;50.886;6.468;2023-05-23T06:28:12;14.30;99.90
27306;DHT22;14792;50.886;6.468;2023-05-23T06:31:13;14.30;99.90
27306;DHT22;14792;50.886;6.468;2023-05-23T06:34:16;14.30;99.90
27306;DHT22;14792;50.886;6.468;2023-05-23T06:37:18;14.30;99.90
27306;DHT22;14792;50.886;6.468;2023-05-23T06:40:19;14.30;99.90
27306;DHT22;14792;50.886;6.468;2023-05-23T06:43:21;14.30;99.90
27306;DHT22;14792;50.886;6.468;2023-05-23T06:46:23;14.40;99.90
27306;DHT22;14792;50.886;6.468;2023-05-23T06:49:24;14.40;99.90
27306;DHT22;14792;50.886;6.468;2023-05-23T06:52:26;14.50;99.90
27306;DHT22;14792;50.886;6.468;2023-05-23T06:55:28;14.50;99.90
27306;DHT22;14792;50.886;6.468;2023-05-23T06:58:29;14.50;99.90
27306;DHT22;14792;50.886;6.468;2023-05-23T07:01:31;14.60;99.90
27306;DHT22;14792;50.886;6.468;2023-05-23T07:04:33;14.50;99.90
27306;DHT22;14792;50.886;6.468;2023-05-23T07:07:35;14.60;99.90
27306;DHT22;14792;50.886;6.468;2023-05-23T07:10:36;14.60;99.90
27306;DHT22;14792;50.886;6.468;2023-05-23T07:13:38;14.60;99.90
27306;DHT22;14792;50.886;6.468;2023-05-23T07:16:39;14.60;99.90
27306;DHT22;14792;50.886;6.468;2023-05-23T07:19:41;14.60;99.90
27306;DHT22;14792;50.886;6.468;2023-05-23T07:22:43;14.60;99.90
27306;DHT22;14792;50.886;6.468;2023-05-23T07:25:44;14.50;99.90
27306;DHT22;14792;50.886;6.468;2023-05-23T07:28:46;14.50;99.90
27306;DHT22;14792;50.886;6.468;2023-05-23T07:31:48;14.40;99.90
27306;DHT22;14792;50.886;6.468;2023-05-23T07:34:49;14.40;99.90
27306;DHT22;14792;50.886;6.468;2023-05-23T07:37:51;14.40;99.90
27306;DHT22;14792;50.886;6.468;2023-05-23T07:40:53;14.40;99.90
27306;DHT22;14792;50.886;6.468;2023-05-23T07:43:56;14.30;99.90
27306;DHT22;14792;50.886;6.468;2023-05-23T07:46:58;14.40;99.90
27306;DHT22;14792;50.886;6.468;2023-05-23T07:49:59;14.40;99.90
27306;DHT22;14792;50.886;6.468;2023-05-23T07:53:01;14.50;99.90
27306;DHT22;14792;50.886;6.468;2023-05-23T07:56:03;14.40;99.90
27306;DHT22;14792;50.886;6.468;2023-05-23T07:59:07;14.40;99.90
27306;DHT22;14792;50.886;6.468;2023-05-23T08:02:08;14.40;99.90
27306;DHT22;14792;50.886;6.468;2023-05-23T08:05:10;14.20;99.90
27306;DHT22;14792;50.886;6.468;2023-05-23T08:08:12;14.10;99.90
27306;DHT22;14792;50.886;6.468;2023-05-23T08:11:14;14.00;99.90
27306;DHT22;14792;50.886;6.468;2023-05-23T08:14:15;14.00;99.90
27306;DHT22;14792;50.886;6.468;2023-05-23T08:17:17;13.90;99.90
27306;DHT22;14792;50.886;6.468;2023-05-23T08:20:18;13.90;99.90
27306;DHT22;14792;50.886;6.468;2023-05-23T08:23:20;13.90;99.90
27306;DHT22;14792;50.886;6.468;2023-05-23T08:26:22;13.90;99.90
27306;DHT22;14792;50.886;6.468;2023-05-23T08:29:23;13.80;99.90
27306;DHT22;14792;50.886;6.468;2023-05-23T08:32:25;13.70;99.90
27306;DHT22;14792;50.886;6.468;2023-05-23T08:35:27;13.70;99.90
27306;DHT22;14792;50.886;6.468;2023-05-23T08:38:29;13.70;99.90
27306;DHT22;14792;50.886;6.468;2023-05-23T08:41:30;13.80;99.90
27306;DHT22;14792;50.886;6.468;2023-05-23T08:44:32;13.80;99.90
27306;DHT22;14792;50.886;6.468;2023-05-23T08:47:35;13.70;99.90
27306;DHT22;14792;50.886;6.468;2023-05-23T08:50:35;13.70;99.90
27306;DHT22;14792;50.886;6.468;2023-05-23T08:53:37;13.80;99.90
27306;DHT22;14792;50.886;6.468;2023-05-23T08:56:42;13.70;99.90
27306;DHT22;14792;50.886;6.468;2023-05-23T08:59:43;13.70;99.90
27306;DHT22;14792;50.886;6.468;2023-05-23T09:02:45;13.60;99.90
27306;DHT22;14792;50.886;6.468;2023-05-23T09:05:47;13.50;99.90
27306;DHT22;14792;50.886;6.468;2023-05-23T09:08:49;13.40;99.90
27306;DHT22;14792;50.886;6.468;2023-05-23T09:11:51;13.30;99.90
27306;DHT22;14792;50.886;6.468;2023-05-23T09:14:52;13.40;99.90
27306;DHT22;14792;50.886;6.468;2023-05-23T09:17:58;13.50;99.90
27306;DHT22;14792;50.886;6.468;2023-05-23T09:20:55;13.70;99.90
27306;DHT22;14792;50.886;6.468;2023-05-23T09:23:57;13.60;99.90
27306;DHT22;14792;50.886;6.468;2023-05-23T09:26:59;13.50;99.90
27306;DHT22;14792;50.886;6.468;2023-05-23T09:30:06;13.40;99.90
27306;DHT22;14792;50.886;6.468;2023-05-23T09:33:09;13.40;99.90
27306;DHT22;14792;50.886;6.468;2023-05-23T09:36:10;13.60;99.90
27306;DHT22;14792;50.886;6.468;2023-05-23T09:39:12;13.70;99.90
27306;DHT22;14792;50.886;6.468;2023-05-23T09:42:20;13.80;99.90
27306;DHT22;14792;50.886;6.468;2023-05-23T09:45:28;14.00;99.90
27306;DHT22;14792;50.886;6.468;2023-05-23T09:48:29;14.00;99.90
27306;DHT22;14792;50.886;6.468;2023-05-23T09:51:31;13.80;99.90
27306;DHT22;14792;50.886;6.468;2023-05-23T09:54:33;13.80;99.90
27306;DHT22;14792;50.886;6.468;2023-05-23T09:57:36;13.80;99.90
27306;DHT22;14792;50.886;6.468;2023-05-23T10:00:42;13.80;99.90
27306;DHT22;14792;50.886;6.468;2023-05-23T10:06:58;14.80;99.90
27306;DHT22;14792;50.886;6.468;2023-05-23T10:10:02;15.50;99.90
27306;DHT22;14792;50.886;6.468;2023-05-23T10:13:01;15.30;99.90
27306;DHT22;14792;50.886;6.468;2023-05-23T10:16:13;15.60;99.90
27306;DHT22;14792;50.886;6.468;2023-05-23T10:19:17;15.40;99.90
27306;DHT22;14792;50.886;6.468;2023-05-23T10:22:19;15.20;99.90
27306;DHT22;14792;50.886;6.468;2023-05-23T10:25:21;15.20;99.90
27306;DHT22;14792;50.886;6.468;2023-05-23T10:28:22;15.20;99.90
27306;DHT22;14792;50.886;6.468;2023-05-23T10:31:25;15.60;99.90
27306;DHT22;14792;50.886;6.468;2023-05-23T10:34:36;15.80;99.90
27306;DHT22;14792;50.886;6.468;2023-05-23T10:44:11;16.10;99.90
27306;DHT22;14792;50.886;6.468;2023-05-23T10:46:59;15.70;99.90
27306;DHT22;14792;50.886;6.468;2023-05-23T10:50:03;15.90;99.90
27306;DHT22;14792;50.886;6.468;2023-05-23T10:53:05;16.10;99.90
27306;DHT22;14792;50.886;6.468;2023-05-23T10:56:07;16.10;99.90
27306;DHT22;14792;50.886;6.468;2023-05-23T10:59:08;16.20;99.90
27306;DHT22;14792;50.886;6.468;2023-05-23T11:02:13;16.20;99.90
27306;DHT22;14792;50.886;6.468;2023-05-23T11:08:16;17.10;99.90
27306;DHT22;14792;50.886;6.468;2023-05-23T11:11:18;17.10;99.90
27306;DHT22;14792;50.886;6.468;2023-05-23T11:14:20;17.10;99.90
27306;DHT22;14792;50.886;6.468;2023-05-23T11:17:30;17.00;99.90
27306;DHT22;14792;50.886;6.468;2023-05-23T11:20:31;17.20;99.90
27306;DHT22;14792;50.886;6.468;2023-05-23T11:23:39;16.80;99.90
27306;DHT22;14792;50.886;6.468;2023-05-23T11:26:42;16.70;99.90
27306;DHT22;14792;50.886;6.468;2023-05-23T11:29:42;16.30;99.90
27306;DHT22;14792;50.886;6.468;2023-05-23T11:32:51;16.10;99.90
27306;DHT22;14792;50.886;6.468;2023-05-23T11:35:52;16.10;99.90
27306;DHT22;14792;50.886;6.468;2023-05-23T11:38:54;16.00;99.90
27306;DHT22;14792;50.886;6.468;2023-05-23T11:42:02;15.90;99.90
27306;DHT22;14792;50.886;6.468;2023-05-23T11:45:07;15.70;99.90
27306;DHT22;14792;50.886;6.468;2023-05-23T11:48:09;15.60;99.90
27306;DHT22;14792;50.886;6.468;2023-05-23T11:51:10;15.80;99.90
27306;DHT22;14792;50.886;6.468;2023-05-23T11:54:12;16.00;99.90
27306;DHT22;14792;50.886;6.468;2023-05-23T11:57:14;16.10;99.90
27306;DHT22;14792;50.886;6.468;2023-05-23T12:00:16;16.10;99.90
27306;DHT22;14792;50.886;6.468;2023-05-23T12:03:17;16.30;99.90
27306;DHT22;14792;50.886;6.468;2023-05-23T12:06:19;16.40;99.90
27306;DHT22;14792;50.886;6.468;2023-05-23T12:09:21;16.30;99.90
27306;DHT22;14792;50.886;6.468;2023-05-23T12:12:22;16.20;99.90
27306;DHT22;14792;50.886;6.468;2023-05-23T12:15:25;16.20;99.90
27306;DHT22;14792;50.886;6.468;2023-05-23T12:18:31;16.10;99.90
27306;DHT22;14792;50.886;6.468;2023-05-23T12:21:47;16.20;99.90
27306;DHT22;14792;50.886;6.468;2023-05-23T12:24:49;16.20;99.90
27306;DHT22;14792;50.886;6.468;2023-05-23T12:27:50;16.20;99.90
27306;DHT22;14792;50.886;6.468;2023-05-23T12:30:54;16.40;99.90
27306;DHT22;14792;50.886;6.468;2023-05-23T12:33:55;16.70;99.90
27306;DHT22;14792;50.886;6.468;2023-05-23T12:36:57;16.60;99.90
27306;DHT22;14792;50.886;6.468;2023-05-23T12:40:08;16.80;99.90
27306;DHT22;14792;50.886;6.468;2023-05-23T12:43:00;16.90;99.90
27306;DHT22;14792;50.886;6.468;2023-05-23T12:46:04;17.00;99.90
27306;DHT22;14792;50.886;6.468;2023-05-23T12:49:05;17.00;99.90
27306;DHT22;14792;50.886;6.468;2023-05-23T12:52:07;16.80;99.90
27306;DHT22;14792;50.886;6.468;2023-05-23T12:55:09;17.00;99.90
27306;DHT22;14792;50.886;6.468;2023-05-23T12:58:10;17.50;99.90
27306;DHT22;14792;50.886;6.468;2023-05-23T13:01:12;17.60;99.90
27306;DHT22;14792;50.886;6.468;2023-05-23T13:04:14;17.80;99.90
27306;DHT22;14792;50.886;6.468;2023-05-23T13:07:15;17.90;99.90
27306;DHT22;14792;50.886;6.468;2023-05-23T13:10:17;17.50;99.90
27306;DHT22;14792;50.886;6.468;2023-05-23T13:13:18;17.30;99.90
27306;DHT22;14792;50.886;6.468;2023-05-23T13:16:20;17.10;99.90
27306;DHT22;14792;50.886;6.468;2023-05-23T13:19:22;17.70;99.90
27306;DHT22;14792;50.886;6.468;2023-05-23T13:22:23;18.00;99.90
27306;DHT22;14792;50.886;6.468;2023-05-23T13:25:25;18.20;99.90
27306;DHT22;14792;50.886;6.468;2023-05-23T13:28:27;18.00;99.90
27306;DHT22;14792;50.886;6.468;2023-05-23T13:31:28;18.00;99.90
27306;DHT22;14792;50.886;6.468;2023-05-23T13:34:30;17.90;99.90
27306;DHT22;14792;50.886;6.468;2023-05-23T13:37:31;18.00;99.90
27306;DHT22;14792;50.886;6.468;2023-05-23T13:40:33;18.00;99.90
27306;DHT22;14792;50.886;6.468;2023-05-23T13:43:35;18.20;99.90
27306;DHT22;14792;50.886;6.468;2023-05-23T13:46:36;18.70;99.90
27306;DHT22;14792;50.886;6.468;2023-05-23T13:49:38;18.80;99.90
27306;DHT22;14792;50.886;6.468;2023-05-23T13:52:40;18.80;99.90
27306;DHT22;14792;50.886;6.468;2023-05-23T13:55:42;19.10;99.90
27306;DHT22;14792;50.886;6.468;2023-05-23T13:58:43;19.30;99.90
27306;DHT22;14792;50.886;6.468;2023-05-23T14:01:45;18.70;99.90
27306;DHT22;14792;50.886;6.468;2023-05-23T14:04:50;18.40;99.90
27306;DHT22;14792;50.886;6.468;2023-05-23T14:07:48;18.50;99.90
27306;DHT22;14792;50.886;6.468;2023-05-23T14:10:51;18.90;99.90
27306;DHT22;14792;50.886;6.468;2023-05-23T14:13:53;19.00;99.90
27306;DHT22;14792;50.886;6.468;2023-05-23T14:16:55;19.30;99.90
27306;DHT22;14792;50.886;6.468;2023-05-23T14:19:56;19.60;99.90
27306;DHT22;14792;50.886;6.468;2023-05-23T14:22:58;19.40;99.90
27306;DHT22;14792;50.886;6.468;2023-05-23T14:26:02;19.40;99.90
27306;DHT22;14792;50.886;6.468;2023-05-23T14:29:04;18.90;99.90
27306;DHT22;14792;50.886;6.468;2023-05-23T14:32:05;19.30;99.90
27306;DHT22;14792;50.886;6.468;2023-05-23T14:35:08;19.30;99.90
27306;DHT22;14792;50.886;6.468;2023-05-23T14:38:08;19.20;99.90
27306;DHT22;14792;50.886;6.468;2023-05-23T14:41:10;19.20;99.90
27306;DHT22;14792;50.886;6.468;2023-05-23T14:44:12;19.20;99.90
27306;DHT22;14792;50.886;6.468;2023-05-23T14:47:13;19.70;99.90
27306;DHT22;14792;50.886;6.468;2023-05-23T14:50:15;19.50;99.90
27306;DHT22;14792;50.886;6.468;2023-05-23T14:53:18;19.20;99.90
27306;DHT22;14792;50.886;6.468;2023-05-23T14:56:22;18.90;99.90
27306;DHT22;14792;50.886;6.468;2023-05-23T14:59:24;19.00;99.90
27306;DHT22;14792;50.886;6.468;2023-05-23T15:02:26;19.00;99.90
27306;DHT22;14792;50.886;6.468;2023-05-23T15:05:37;18.40;99.90
27306;DHT22;14792;50.886;6.468;2023-05-23T15:08:38;18.40;99.90
27306;DHT22;14792;50.886;6.468;2023-05-23T15:11:40;18.80;99.90
27306;DHT22;14792;50.886;6.468;2023-05-23T15:14:41;18.50;99.90
27306;DHT22;14792;50.886;6.468;2023-05-23T15:17:43;18.50;99.90
27306;DHT22;14792;50.886;6.468;2023-05-23T15:20:45;18.40;99.90
27306;DHT22;14792;50.886;6.468;2023-05-23T15:23:46;18.10;99.90
27306;DHT22;14792;50.886;6.468;2023-05-23T15:26:48;18.00;99.90
27306;DHT22;14792;50.886;6.468;2023-05-23T15:29:50;18.00;99.90
27306;DHT22;14792;50.886;6.468;2023-05-23T15:32:51;17.70;99.90
27306;DHT22;14792;50.886;6.468;2023-05-23T15:35:53;17.70;99.90
27306;DHT22;14792;50.886;6.468;2023-05-23T15:38:55;17.60;99.90
27306;DHT22;14792;50.886;6.468;2023-05-23T15:41:56;17.60;99.90
27306;DHT22;14792;50.886;6.468;2023-05-23T15:44:58;17.70;99.90
27306;DHT22;14792;50.886;6.468;2023-05-23T15:47:59;17.90;99.90
27306;DHT22;14792;50.886;6.468;2023-05-23T15:51:01;17.90;99.90
27306;DHT22;14792;50.886;6.468;2023-05-23T15:54:05;17.60;99.90
27306;DHT22;14792;50.886;6.468;2023-05-23T15:57:07;17.60;99.90
27306;DHT22;14792;50.886;6.468;2023-05-23T16:00:09;17.30;99.90
27306;DHT22;14792;50.886;6.468;2023-05-23T16:03:10;17.20;99.90
27306;DHT22;14792;50.886;6.468;2023-05-23T16:06:12;17.20;99.90
27306;DHT22;14792;50.886;6.468;2023-05-23T16:09:15;17.10;99.90
27306;DHT22;14792;50.886;6.468;2023-05-23T16:12:16;17.30;99.90
27306;DHT22;14792;50.886;6.468;2023-05-23T16:15:18;17.00;99.90
27306;DHT22;14792;50.886;6.468;2023-05-23T16:18:20;16.90;99.90
27306;DHT22;14792;50.886;6.468;2023-05-23T16:21:21;16.80;99.90
27306;DHT22;14792;50.886;6.468;2023-05-23T16:24:24;17.10;99.90
27306;DHT22;14792;50.886;6.468;2023-05-23T16:27:25;17.30;99.90
27306;DHT22;14792;50.886;6.468;2023-05-23T16:30:27;17.50;99.90
27306;DHT22;14792;50.886;6.468;2023-05-23T16:33:29;17.30;99.90
27306;DHT22;14792;50.886;6.468;2023-05-23T16:36:31;17.50;99.90
27306;DHT22;14792;50.886;6.468;2023-05-23T16:39:32;17.70;99.90
27306;DHT22;14792;50.886;6.468;2023-05-23T16:42:35;17.80;99.90
27306;DHT22;14792;50.886;6.468;2023-05-23T16:45:35;17.60;99.90
27306;DHT22;14792;50.886;6.468;2023-05-23T16:48:37;17.30;99.90
27306;DHT22;14792;50.886;6.468;2023-05-23T16:51:39;17.20;99.90
27306;DHT22;14792;50.886;6.468;2023-05-23T16:54:47;17.20;99.90
27306;DHT22;14792;50.886;6.468;2023-05-23T16:57:49;16.90;99.90
27306;DHT22;14792;50.886;6.468;2023-05-23T17:00:51;16.70;99.90
27306;DHT22;14792;50.886;6.468;2023-05-23T17:03:52;16.50;99.90
27306;DHT22;14792;50.886;6.468;2023-05-23T17:06:54;16.50;99.90
27306;DHT22;14792;50.886;6.468;2023-05-23T17:09:56;16.40;99.90
27306;DHT22;14792;50.886;6.468;2023-05-23T17:13:01;16.40;99.90
27306;DHT22;14792;50.886;6.468;2023-05-23T17:16:03;16.50;99.90
27306;DHT22;14792;50.886;6.468;2023-05-23T17:19:04;16.40;99.90
27306;DHT22;14792;50.886;6.468;2023-05-23T17:22:06;16.30;99.90
27306;DHT22;14792;50.886;6.468;2023-05-23T17:25:08;16.30;99.90
27306;DHT22;14792;50.886;6.468;2023-05-23T17:28:10;16.10;99.90
27306;DHT22;14792;50.886;6.468;2023-05-23T17:31:11;15.90;99.90
27306;DHT22;14792;50.886;6.468;2023-05-23T17:34:13;15.80;99.90
27306;DHT22;14792;50.886;6.468;2023-05-23T17:37:15;15.70;99.90
27306;DHT22;14792;50.886;6.468;2023-05-23T17:40:17;15.80;99.90
27306;DHT22;14792;50.886;6.468;2023-05-23T17:43:18;15.70;99.90
27306;DHT22;14792;50.886;6.468;2023-05-23T17:46:20;15.70;99.90
27306;DHT22;14792;50.886;6.468;2023-05-23T17:49:21;15.60;99.90
27306;DHT22;14792;50.886;6.468;2023-05-23T17:52:26;15.50;99.90
27306;DHT22;14792;50.886;6.468;2023-05-23T17:55:27;15.40;99.90
27306;DHT22;14792;50.886;6.468;2023-05-23T17:58:29;15.40;99.90
27306;DHT22;14792;50.886;6.468;2023-05-23T18:01:31;15.20;99.90
27306;DHT22;14792;50.886;6.468;2023-05-23T18:04:32;15.10;99.90
27306;DHT22;14792;50.886;6.468;2023-05-23T18:07:36;15.00;99.90
27306;DHT22;14792;50.886;6.468;2023-05-23T18:10:38;15.00;99.90
27306;DHT22;14792;50.886;6.468;2023-05-23T18:13:39;15.00;99.90
27306;DHT22;14792;50.886;6.468;2023-05-23T18:16:42;15.00;99.90
27306;DHT22;14792;50.886;6.468;2023-05-23T18:19:44;14.90;99.90
27306;DHT22;14792;50.886;6.468;2023-05-23T18:22:50;14.90;99.90
27306;DHT22;14792;50.886;6.468;2023-05-23T18:25:47;14.90;99.90
27306;DHT22;14792;50.886;6.468;2023-05-23T18:28:48;14.80;99.90
27306;DHT22;14792;50.886;6.468;2023-05-23T18:31:53;14.70;99.90
27306;DHT22;14792;50.886;6.468;2023-05-23T18:34:55;14.60;99.90
27306;DHT22;14792;50.886;6.468;2023-05-23T18:37:56;14.50;99.90
27306;DHT22;14792;50.886;6.468;2023-05-23T18:40:58;14.50;99.90
27306;DHT22;14792;50.886;6.468;2023-05-23T18:44:00;14.30;99.90
27306;DHT22;14792;50.886;6.468;2023-05-23T18:47:03;14.30;99.90
27306;DHT22;14792;50.886;6.468;2023-05-23T18:50:05;14.40;99.90
27306;DHT22;14792;50.886;6.468;2023-05-23T18:53:07;14.20;99.90
27306;DHT22;14792;50.886;6.468;2023-05-23T18:56:08;14.10;99.90
27306;DHT22;14792;50.886;6.468;2023-05-23T18:59:10;14.00;99.90
27306;DHT22;14792;50.886;6.468;2023-05-23T19:02:12;13.90;99.90
27306;DHT22;14792;50.886;6.468;2023-05-23T19:05:13;13.80;99.90
27306;DHT22;14792;50.886;6.468;2023-05-23T19:08:15;13.70;99.90
27306;DHT22;14792;50.886;6.468;2023-05-23T19:11:17;13.70;99.90
27306;DHT22;14792;50.886;6.468;2023-05-23T19:14:19;13.60;99.90
27306;DHT22;14792;50.886;6.468;2023-05-23T19:17:20;13.50;99.90
27306;DHT22;14792;50.886;6.468;2023-05-23T19:20:22;13.40;99.90
27306;DHT22;14792;50.886;6.468;2023-05-23T19:23:24;13.40;99.90
27306;DHT22;14792;50.886;6.468;2023-05-23T19:26:25;13.30;99.90